Terminal Aerodrome Forecast
Issued by NWS Topeka, KS

Home | Current Version | Previous Version | Text Only | Print | Product List | Glossary Off
Versions: 1 2 3 4 5 6 7 8 9 10 11 12

000
FTUS43 KTOP 291700
TAFTOP
TAF
KTOP 291720Z 2918/3018 34006KT P6SM SCT050 BKN100
     FM300100 03002KT P6SM SCT100
     FM301100 04003KT P6SM BKN090=

USA.gov is the U.S. government's official web portal to all federal, state and local government web resources and services.